createdAt,value
2022-08-30T00:01:37.262Z,3.38
2022-08-30T00:04:39.970Z,3.92
2022-08-30T00:07:42.569Z,4.00
2022-08-30T00:10:48.235Z,3.13
2022-08-30T00:13:52.548Z,3.50
2022-08-30T00:16:55.354Z,4.22
2022-08-30T00:19:57.973Z,3.47
2022-08-30T00:23:01.165Z,3.92
2022-08-30T00:26:06.019Z,4.10
2022-08-30T00:29:08.629Z,5.27
2022-08-30T00:32:11.328Z,4.57
2022-08-30T00:35:16.939Z,5.65
2022-08-30T00:38:19.572Z,4.47
2022-08-30T00:41:23.724Z,4.13
2022-08-30T00:44:26.383Z,4.43
2022-08-30T00:47:29.201Z,5.28
2022-08-30T00:50:36.933Z,4.22
2022-08-30T00:53:43.546Z,4.25
2022-08-30T00:56:49.142Z,4.87
2022-08-30T00:59:52.095Z,4.87
2022-08-30T01:02:55.062Z,4.78
2022-08-30T01:05:58.807Z,4.82
2022-08-30T01:09:02.704Z,3.92
2022-08-30T01:12:07.448Z,4.50
2022-08-30T01:15:13.003Z,4.10
2022-08-30T01:18:17.418Z,4.18
2022-08-30T01:21:25.413Z,4.03
2022-08-30T01:24:30.249Z,3.90
2022-08-30T01:27:33.694Z,3.97
2022-08-30T01:30:40.198Z,4.20
2022-08-30T01:33:43.690Z,4.88
2022-08-30T01:36:47.825Z,5.20
2022-08-30T01:39:51.904Z,4.60
2022-08-30T01:42:54.773Z,4.40
2022-08-30T01:45:57.523Z,9.10
2022-08-30T01:49:00.335Z,4.20
2022-08-30T01:52:03.255Z,5.75
2022-08-30T01:55:08.765Z,5.15
2022-08-30T01:58:11.981Z,6.50
2022-08-30T02:01:19.674Z,5.33
2022-08-30T02:04:22.610Z,6.28
2022-08-30T02:07:25.763Z,6.07
2022-08-30T02:10:30.452Z,5.65
2022-08-30T02:13:33.182Z,4.83
2022-08-30T02:16:35.877Z,5.57
2022-08-30T02:19:38.845Z,4.88
2022-08-30T02:22:48.141Z,5.13
2022-08-30T02:25:53.838Z,5.00
2022-08-30T02:28:56.594Z,4.17
2022-08-30T02:32:01.820Z,4.67
2022-08-30T02:35:05.194Z,4.95
2022-08-30T02:38:08.321Z,4.80
2022-08-30T02:41:12.340Z,4.82
2022-08-30T02:44:15.382Z,4.60
2022-08-30T02:47:18.142Z,4.20
2022-08-30T02:50:21.029Z,4.32
2022-08-30T02:53:24.338Z,4.10
2022-08-30T02:56:31.051Z,4.75
2022-08-30T02:59:36.935Z,4.30
2022-08-30T03:02:40.435Z,4.73
2022-08-30T03:05:43.166Z,4.40
2022-08-30T03:08:46.099Z,4.70
2022-08-30T03:11:50.155Z,4.32
2022-08-30T03:14:52.829Z,4.37
2022-08-30T03:17:56.425Z,4.33
2022-08-30T03:20:59.234Z,4.47
2022-08-30T03:24:02.004Z,4.65
2022-08-30T03:27:06.042Z,4.32
2022-08-30T03:30:10.374Z,5.10
2022-08-30T03:33:13.083Z,5.70
2022-08-30T03:36:15.984Z,4.40
2022-08-30T03:39:18.714Z,4.65
2022-08-30T03:42:23.897Z,4.72
2022-08-30T03:45:27.617Z,4.90
2022-08-30T03:48:31.118Z,3.40
2022-08-30T03:51:34.230Z,3.90
2022-08-30T03:54:37.938Z,4.68
2022-08-30T03:57:43.699Z,4.68
2022-08-30T04:00:46.761Z,4.23
2022-08-30T04:03:49.581Z,3.57
2022-08-30T04:06:52.555Z,3.47
2022-08-30T04:09:55.179Z,3.70
2022-08-30T04:12:59.291Z,4.97
2022-08-30T04:16:01.942Z,4.40
2022-08-30T04:19:05.290Z,4.17
2022-08-30T04:22:07.974Z,4.35
2022-08-30T04:25:15.577Z,4.53
2022-08-30T04:28:20.030Z,4.55
2022-08-30T04:31:22.979Z,4.60
2022-08-30T04:34:25.681Z,5.27
2022-08-30T04:37:28.394Z,4.57
2022-08-30T04:40:31.301Z,4.93
2022-08-30T04:43:35.497Z,5.32
2022-08-30T04:46:38.280Z,5.40
2022-08-30T04:49:47.648Z,5.20
2022-08-30T04:52:50.312Z,5.03
2022-08-30T04:55:53.114Z,4.20
2022-08-30T04:58:57.156Z,5.00
2022-08-30T05:02:00.205Z,4.60
2022-08-30T05:05:20.946Z,4.77
2022-08-30T05:08:24.902Z,5.70
2022-08-30T05:11:28.126Z,4.70
2022-08-30T05:14:33.959Z,5.28
2022-08-30T05:17:38.093Z,5.50
2022-08-30T05:20:41.086Z,5.13
2022-08-30T05:23:44.836Z,5.70
2022-08-30T05:29:52.483Z,5.07
2022-08-30T05:32:55.658Z,6.10
2022-08-30T05:35:58.524Z,4.97
2022-08-30T05:39:05.642Z,5.60
2022-08-30T05:42:08.612Z,6.57
2022-08-30T05:45:13.517Z,6.45
2022-08-30T05:48:16.311Z,6.10
2022-08-30T05:51:21.549Z,6.63
2022-08-30T05:54:24.352Z,6.50
2022-08-30T05:57:27.758Z,7.00
2022-08-30T06:00:31.894Z,6.65
2022-08-30T06:03:35.129Z,5.80
2022-08-30T06:06:39.727Z,6.73
2022-08-30T06:09:42.381Z,6.50
2022-08-30T06:12:45.210Z,7.25
2022-08-30T06:15:49.782Z,6.75
2022-08-30T06:18:53.254Z,6.97
2022-08-30T06:21:56.042Z,6.80
2022-08-30T06:24:58.678Z,7.55
2022-08-30T06:28:01.490Z,7.07
2022-08-30T06:31:08.690Z,7.43
2022-08-30T06:34:11.704Z,7.03
2022-08-30T06:37:29.031Z,6.37
2022-08-30T06:40:33.300Z,6.72
2022-08-30T06:43:36.349Z,6.93
2022-08-30T06:46:40.422Z,7.60
2022-08-30T06:49:43.323Z,6.80
2022-08-30T06:52:47.392Z,7.83
2022-08-30T06:55:56.259Z,7.20
2022-08-30T06:58:59.363Z,7.95
2022-08-30T07:02:03.408Z,7.57
2022-08-30T07:05:07.995Z,6.57
2022-08-30T07:08:11.156Z,6.73
2022-08-30T07:11:13.966Z,6.45
2022-08-30T07:14:16.578Z,7.22
2022-08-30T07:17:37.936Z,7.00
2022-08-30T07:20:40.928Z,7.00
2022-08-30T07:23:46.890Z,7.20
2022-08-30T07:26:52.296Z,7.13
2022-08-30T07:29:55.903Z,6.88
2022-08-30T07:33:00.144Z,6.88
2022-08-30T07:36:04.853Z,9.10
2022-08-30T07:39:08.054Z,8.60
2022-08-30T07:42:10.713Z,9.45
2022-08-30T07:45:14.094Z,7.15
2022-08-30T07:48:18.143Z,7.78
2022-08-30T07:51:23.254Z,8.87
2022-08-30T07:54:26.118Z,8.53
2022-08-30T07:57:31.653Z,8.05
2022-08-30T08:00:34.487Z,7.57
2022-08-30T08:03:40.179Z,7.75
2022-08-30T08:06:43.194Z,7.00
2022-08-30T08:09:45.934Z,8.60
2022-08-30T08:12:48.638Z,7.78
2022-08-30T08:15:51.537Z,8.32
2022-08-30T08:18:56.229Z,7.63
2022-08-30T08:22:21.119Z,6.27
2022-08-30T08:25:23.190Z,4.23
2022-08-30T08:28:26.379Z,6.18
2022-08-30T08:31:33.505Z,4.78
2022-08-30T08:34:38.047Z,4.60
2022-08-30T08:37:41.053Z,4.07
2022-08-30T08:40:54.438Z,5.07
2022-08-30T08:43:57.156Z,4.38
2022-08-30T08:47:11.456Z,4.53
2022-08-30T08:50:21.212Z,3.53
2022-08-30T08:53:50.700Z,4.27
2022-08-30T08:56:53.498Z,4.30
2022-08-30T08:59:56.293Z,3.28
2022-08-30T09:03:01.138Z,2.55
2022-08-30T09:06:08.001Z,2.85
2022-08-30T09:09:11.223Z,2.97
2022-08-30T09:12:14.807Z,2.57
2022-08-30T09:15:26.926Z,2.47
2022-08-30T09:18:48.144Z,3.00
2022-08-30T09:21:58.235Z,2.45
2022-08-30T09:25:05.725Z,2.20
2022-08-30T09:28:14.475Z,2.80
2022-08-30T09:31:20.451Z,3.58
2022-08-30T09:34:24.626Z,3.90
2022-08-30T09:37:34.335Z,3.72
2022-08-30T09:40:40.626Z,3.37
2022-08-30T09:43:43.966Z,3.93
2022-08-30T09:46:52.025Z,2.80
2022-08-30T09:50:06.127Z,3.53
2022-08-30T09:53:23.415Z,3.42
2022-08-30T09:56:34.907Z,2.97
2022-08-30T09:59:49.154Z,2.63
2022-08-30T10:03:04.891Z,3.05
2022-08-30T10:06:13.884Z,9.15
2022-08-30T10:09:28.532Z,4.93
2022-08-30T10:12:42.418Z,5.53
2022-08-30T10:15:50.797Z,3.47
2022-08-30T10:19:06.429Z,3.65
2022-08-30T10:22:15.330Z,1.70
2022-08-30T10:25:24.149Z,2.25
2022-08-30T10:28:34.863Z,2.43
2022-08-30T10:31:43.174Z,1.90
2022-08-30T10:34:53.898Z,1.58
2022-08-30T10:38:00.814Z,2.42
2022-08-30T10:41:17.329Z,2.15
2022-08-30T10:44:24.371Z,1.33
2022-08-30T10:47:34.481Z,1.87
2022-08-30T10:50:42.800Z,1.80
2022-08-30T10:53:48.881Z,2.00
2022-08-30T10:56:56.403Z,1.92
2022-08-30T11:00:02.701Z,2.03
2022-08-30T11:03:37.141Z,1.13
2022-08-30T11:06:48.559Z,0.80
2022-08-30T11:10:21.140Z,1.48
2022-08-30T11:13:29.865Z,2.40
2022-08-30T11:16:38.446Z,2.40
2022-08-30T11:19:42.629Z,3.37
2022-08-30T11:23:17.249Z,1.85
2022-08-30T11:27:07.687Z,2.13
2022-08-30T11:30:49.299Z,2.40
2022-08-30T11:33:54.027Z,2.60
2022-08-30T11:37:03.682Z,2.10
2022-08-30T11:40:48.246Z,1.92
2022-08-30T11:43:57.322Z,2.00
2022-08-30T11:47:02.264Z,1.45
2022-08-30T11:50:14.158Z,2.70
2022-08-30T11:53:25.896Z,2.00
2022-08-30T11:56:37.653Z,2.00
2022-08-30T11:59:52.384Z,1.55
2022-08-30T12:03:00.368Z,2.08
2022-08-30T12:06:04.409Z,3.33
2022-08-30T12:09:08.550Z,2.93
2022-08-30T12:12:13.347Z,4.70
2022-08-30T12:15:57.896Z,3.60
2022-08-30T12:19:18.181Z,3.83
2022-08-30T12:22:23.147Z,5.00
2022-08-30T12:25:32.839Z,4.47
2022-08-30T12:28:35.669Z,3.75
2022-08-30T12:31:45.187Z,4.25
2022-08-30T12:34:54.885Z,3.65
2022-08-30T12:38:01.032Z,4.07
2022-08-30T12:41:04.863Z,3.40
2022-08-30T12:44:15.616Z,5.00
2022-08-30T12:47:22.293Z,5.03
2022-08-30T12:50:30.644Z,5.07
2022-08-30T12:53:37.043Z,5.17
2022-08-30T12:57:10.016Z,7.47
2022-08-30T13:00:26.751Z,4.97
2022-08-30T13:03:34.326Z,5.43
2022-08-30T13:06:42.435Z,4.85
2022-08-30T13:09:45.197Z,5.37
2022-08-30T13:13:06.728Z,4.80
2022-08-30T13:16:13.806Z,4.63
2022-08-30T13:19:31.091Z,4.65
2022-08-30T13:22:38.089Z,5.00
2022-08-30T13:25:41.367Z,4.90
2022-08-30T13:28:48.680Z,4.50
2022-08-30T13:31:51.706Z,4.18
2022-08-30T13:34:54.375Z,4.15
2022-08-30T13:38:01.090Z,3.70
2022-08-30T13:41:04.066Z,3.13
2022-08-30T13:44:12.183Z,3.33
2022-08-30T13:50:39.236Z,3.08
2022-08-30T13:53:58.488Z,2.77
2022-08-30T13:57:02.170Z,3.23
2022-08-30T14:00:09.635Z,3.40
2022-08-30T14:03:12.612Z,3.10
2022-08-30T14:06:32.355Z,3.45
2022-08-30T14:09:38.313Z,3.67
2022-08-30T14:13:07.559Z,2.60
2022-08-30T14:19:31.002Z,3.53
2022-08-30T14:22:33.685Z,2.60
2022-08-30T14:25:37.825Z,2.73
2022-08-30T14:28:44.776Z,2.60
2022-08-30T14:31:48.754Z,2.63
2022-08-30T14:34:51.555Z,3.58
2022-08-30T14:37:54.198Z,3.10
2022-08-30T14:40:58.404Z,4.40
2022-08-30T14:44:03.815Z,3.43
2022-08-30T14:47:07.379Z,2.65
2022-08-30T14:50:10.765Z,3.13
2022-08-30T14:53:13.506Z,4.15
2022-08-30T14:56:19.984Z,3.63
2022-08-30T14:59:23.825Z,4.77
2022-08-30T15:02:27.182Z,4.22
2022-08-30T15:05:30.254Z,3.67
2022-08-30T15:08:33.138Z,3.08
2022-08-30T15:11:38.136Z,3.03
2022-08-30T15:14:41.736Z,3.63
2022-08-30T15:17:44.902Z,3.53
2022-08-30T15:20:49.370Z,3.42
2022-08-30T15:23:52.681Z,3.97
2022-08-30T15:26:56.844Z,5.07
2022-08-30T15:29:59.786Z,4.33
2022-08-30T15:33:02.917Z,2.95
2022-08-30T15:36:06.681Z,3.53
2022-08-30T15:39:11.008Z,3.80
2022-08-30T15:42:19.388Z,3.00
2022-08-30T15:45:22.531Z,3.43
2022-08-30T15:48:25.542Z,3.67
2022-08-30T15:51:28.563Z,3.92
2022-08-30T15:54:33.675Z,2.85
2022-08-30T15:57:37.822Z,3.43
2022-08-30T16:00:44.631Z,2.80
2022-08-30T16:03:47.920Z,3.08
2022-08-30T16:06:51.303Z,3.50
2022-08-30T16:09:55.366Z,3.20
2022-08-30T16:13:01.609Z,4.87
2022-08-30T16:16:07.791Z,5.93
2022-08-30T16:19:10.700Z,3.95
2022-08-30T16:22:13.808Z,3.78
2022-08-30T16:25:25.096Z,5.03
2022-08-30T16:28:44.320Z,3.20
2022-08-30T16:31:47.374Z,3.63
2022-08-30T16:34:50.367Z,3.83
2022-08-30T16:37:53.135Z,4.15
2022-08-30T16:40:56.599Z,4.38
2022-08-30T16:44:00.842Z,3.03
2022-08-30T16:47:03.679Z,3.93
2022-08-30T16:50:09.825Z,2.67
2022-08-30T16:53:13.517Z,2.85
2022-08-30T16:56:18.955Z,3.40
2022-08-30T16:59:23.231Z,4.53
2022-08-30T17:02:26.572Z,2.87
2022-08-30T17:05:30.434Z,2.35
2022-08-30T17:08:33.726Z,4.40
2022-08-30T17:11:37.808Z,4.35
2022-08-30T17:14:44.332Z,4.00
2022-08-30T17:17:47.020Z,3.37
2022-08-30T17:20:49.866Z,3.10
2022-08-30T17:23:52.573Z,2.65
2022-08-30T17:26:58.262Z,2.47
2022-08-30T17:30:03.072Z,2.87
2022-08-30T17:33:05.762Z,2.93
2022-08-30T17:36:08.743Z,2.92
2022-08-30T17:39:11.900Z,2.83
2022-08-30T17:42:16.042Z,4.13
2022-08-30T17:45:20.312Z,3.63
2022-08-30T17:48:23.153Z,4.20
2022-08-30T17:51:25.836Z,3.65
2022-08-30T17:54:30.082Z,3.03
2022-08-30T17:57:32.752Z,3.00
2022-08-30T18:00:37.701Z,2.97
2022-08-30T18:03:45.291Z,3.70
2022-08-30T18:06:48.909Z,3.63
2022-08-30T18:09:53.176Z,3.25
2022-08-30T18:12:56.704Z,3.80
2022-08-30T18:16:02.321Z,4.78
2022-08-30T18:19:05.997Z,3.90
2022-08-30T18:22:12.599Z,3.47
2022-08-30T18:25:15.352Z,3.55
2022-08-30T18:28:19.665Z,4.30
2022-08-30T18:31:24.630Z,7.40
2022-08-30T18:34:28.019Z,5.57
2022-08-30T18:37:32.050Z,5.30
2022-08-30T18:40:34.882Z,5.00
2022-08-30T18:43:38.284Z,4.15
2022-08-30T18:46:45.267Z,4.13
2022-08-30T18:49:58.817Z,4.37
2022-08-30T18:53:02.230Z,4.67
2022-08-30T18:56:05.299Z,4.70
2022-08-30T18:59:08.133Z,4.15
2022-08-30T19:02:17.482Z,3.83
2022-08-30T19:05:22.105Z,3.80
2022-08-30T19:08:26.206Z,5.87
2022-08-30T19:11:29.051Z,3.20
2022-08-30T19:14:32.028Z,3.67
2022-08-30T19:17:36.035Z,3.58
2022-08-30T19:20:39.393Z,3.60
2022-08-30T19:23:44.156Z,5.90
2022-08-30T19:26:47.059Z,4.28
2022-08-30T19:29:53.779Z,4.50
2022-08-30T19:32:58.174Z,4.00
2022-08-30T19:36:01.153Z,3.93
2022-08-30T19:39:04.640Z,3.97
2022-08-30T19:42:07.889Z,3.47
2022-08-30T19:45:12.826Z,3.65
2022-08-30T19:48:16.822Z,4.20
2022-08-30T19:51:21.303Z,3.93
2022-08-30T19:54:24.740Z,4.53
2022-08-30T19:57:27.648Z,3.90
2022-08-30T20:00:31.485Z,3.83
2022-08-30T20:03:37.519Z,3.53
2022-08-30T20:06:44.820Z,3.47
2022-08-30T20:09:47.929Z,3.50
2022-08-30T20:12:52.259Z,3.90
2022-08-30T20:15:55.896Z,4.68
2022-08-30T20:19:00.512Z,4.38
2022-08-30T20:22:07.824Z,3.53
2022-08-30T20:25:15.917Z,4.80
2022-08-30T20:28:21.865Z,4.50
2022-08-30T20:31:24.624Z,6.63
2022-08-30T20:34:30.383Z,3.72
2022-08-30T20:37:33.898Z,4.23
2022-08-30T20:40:40.066Z,4.67
2022-08-30T20:43:42.968Z,5.47
2022-08-30T20:46:47.160Z,4.53
2022-08-30T20:49:51.311Z,4.60
2022-08-30T20:52:54.008Z,4.20
2022-08-30T20:55:56.856Z,3.97
2022-08-30T20:59:01.914Z,3.97
2022-08-30T21:02:06.559Z,2.83
2022-08-30T21:05:11.917Z,4.00
2022-08-30T21:08:14.546Z,3.77
2022-08-30T21:11:17.352Z,3.53
2022-08-30T21:14:21.783Z,4.35
2022-08-30T21:17:26.456Z,2.97
2022-08-30T21:20:30.471Z,4.15
2022-08-30T21:23:33.292Z,3.23
2022-08-30T21:26:36.654Z,4.03
2022-08-30T21:29:39.660Z,3.65
2022-08-30T21:32:42.577Z,3.90
2022-08-30T21:36:03.931Z,3.20
2022-08-30T21:39:07.707Z,2.67
2022-08-30T21:42:11.582Z,4.87
2022-08-30T21:45:15.352Z,4.72
2022-08-30T21:48:18.055Z,3.15
2022-08-30T21:51:22.585Z,3.60
2022-08-30T21:54:31.215Z,3.43
2022-08-30T21:57:34.392Z,2.50
2022-08-30T22:00:36.998Z,2.70
2022-08-30T22:03:42.562Z,2.67
2022-08-30T22:06:50.406Z,3.90
2022-08-30T22:09:53.018Z,2.78
2022-08-30T22:12:55.834Z,2.55
2022-08-30T22:15:58.476Z,2.88
2022-08-30T22:19:02.059Z,3.77
2022-08-30T22:22:06.561Z,2.97
2022-08-30T22:25:10.628Z,2.83
2022-08-30T22:28:15.026Z,2.55
2022-08-30T22:31:19.369Z,2.45
2022-08-30T22:34:22.402Z,2.87
2022-08-30T22:37:26.501Z,2.42
2022-08-30T22:40:29.214Z,2.70
2022-08-30T22:43:32.043Z,2.72
2022-08-30T22:46:35.578Z,3.33
2022-08-30T22:49:38.409Z,2.67
2022-08-30T22:52:42.441Z,2.53
2022-08-30T22:55:45.260Z,2.58
2022-08-30T22:58:48.352Z,2.25
2022-08-30T23:01:51.181Z,2.72
2022-08-30T23:04:53.912Z,3.27
2022-08-30T23:07:58.168Z,2.38
2022-08-30T23:11:02.875Z,2.63
2022-08-30T23:14:06.644Z,2.33
2022-08-30T23:17:09.874Z,2.75
2022-08-30T23:20:13.265Z,1.97
2022-08-30T23:23:34.924Z,2.20
2022-08-30T23:26:56.297Z,2.45
2022-08-30T23:30:16.785Z,2.75
2022-08-30T23:33:37.134Z,3.33
2022-08-30T23:36:57.398Z,2.07
2022-08-30T23:40:19.149Z,2.25
2022-08-30T23:43:39.552Z,2.85
2022-08-30T23:46:59.758Z,2.03
2022-08-30T23:50:20.200Z,2.10
2022-08-30T23:53:43.796Z,1.83
2022-08-30T23:57:05.355Z,2.65
